»·PEaware :: N6218B KEUG-KRDD

N6218B :: KEUG-KRDD

FLIGHT INFORMATION

Flight Status: Arrived
Operator: Privately registered:
United States
More flights under this callsign
Pilot: Anonymous 16594 (16594)
Aircraft: CESSNA 182 SKYLANE
(C182)
More flights by this aircraft type
Origin: KEUG Mahlon Sweet
United States
Destination: KRDD Redding Mun
United States
More flights between these airports :: More routes between these airports
Route: EUG V448 OED V23 FOLDS
File this flight plan on PilotEdge
Remarks:
Altitude:
(Current/Filed)
11,000ft
Speed:
(Current/Filed)
153kts
Departed: 04-Feb-18 04:22 PM
Arrived: 04-Feb-18 05:57 PM
Distance/Time
Traveled:
221nm/1:35
Distance/Time
To Go:
Arrived

Flight Plot

Page will automatically refresh every two minutes.

Flight plan parsing failed; only flown route is shown


Map Options




Map Legend


Flown Route
Filed Route
Departure Airport
Arrival Airport
Navaid (VOR, NDB)
Fix

Horizontal Profiles

Position Reports

Time Latitude Longitude Heading Altitude Ground
Speed
04-Feb-18 16:08 44.112547 -123.214216 89 372ft 0kts
04-Feb-18 16:09 44.112547 -123.214209 89 372ft 0kts
04-Feb-18 16:10 44.112547 -123.214202 89 372ft 0kts
04-Feb-18 16:11 44.112547 -123.214196 89 372ft 0kts
04-Feb-18 16:12 44.112547 -123.214189 89 372ft 0kts
04-Feb-18 16:13 44.112547 -123.214182 89 372ft 0kts
04-Feb-18 16:14 44.112547 -123.214175 89 372ft 0kts
04-Feb-18 16:15 44.112547 -123.214168 89 372ft 0kts
04-Feb-18 16:16 44.112547 -123.214156 89 372ft 1kts
04-Feb-18 16:17 44.112537 -123.215947 267 372ft 0kts
04-Feb-18 16:18 44.112537 -123.215951 267 372ft 0kts
04-Feb-18 16:19 44.114122 -123.217058 359 372ft 18kts
04-Feb-18 16:20 44.119898 -123.217100 0 372ft 20kts
04-Feb-18 16:21 44.124999 -123.217197 358 372ft 16kts
04-Feb-18 16:22 44.129588 -123.217251 358 372ft 16kts
04-Feb-18 16:23 44.134054 -123.217319 359 372ft 15kts
04-Feb-18 16:24 44.135172 -123.218120 268 372ft 0kts
04-Feb-18 16:25 44.135172 -123.218139 268 372ft 0kts
04-Feb-18 16:26 44.135171 -123.218158 268 372ft 0kts
04-Feb-18 16:27 44.134901 -123.219089 195 372ft 15kts
04-Feb-18 16:28 44.120559 -123.218172 177 651ft 95kts
04-Feb-18 16:29 44.094391 -123.214827 179 1457ft 93kts
04-Feb-18 16:30 44.068615 -123.211473 178 2229ft 92kts
04-Feb-18 16:31 44.043732 -123.207951 178 3012ft 86kts
04-Feb-18 16:32 44.018611 -123.204112 179 3758ft 96kts
04-Feb-18 16:33 43.993611 -123.213124 215 4557ft 98kts
04-Feb-18 16:34 43.969538 -123.231601 216 5353ft 97kts
04-Feb-18 16:35 43.945633 -123.249452 214 6129ft 98kts
04-Feb-18 16:36 43.918471 -123.257030 196 6912ft 98kts
04-Feb-18 16:37 43.892533 -123.261340 198 7705ft 86kts
04-Feb-18 16:38 43.867105 -123.265862 198 8177ft 107kts
04-Feb-18 16:39 43.834587 -123.271357 196 8587ft 120kts
04-Feb-18 16:40 43.801064 -123.276982 196 9082ft 121kts
04-Feb-18 16:41 43.767717 -123.282639 198 9572ft 120kts
04-Feb-18 16:42 43.734422 -123.288218 199 10058ft 119kts
04-Feb-18 16:43 43.701514 -123.293783 200 10544ft 117kts
04-Feb-18 16:44 43.669222 -123.299209 200 10994ft 121kts
04-Feb-18 16:45 43.632023 -123.305593 198 11004ft 142kts
04-Feb-18 16:46 43.591381 -123.312357 197 10999ft 149kts
04-Feb-18 16:47 43.549690 -123.319313 197 10995ft 152kts
04-Feb-18 16:48 43.506866 -123.326455 197 10993ft 156kts
04-Feb-18 16:49 43.463598 -123.332860 192 10986ft 158kts
04-Feb-18 16:50 43.419549 -123.335370 192 10986ft 158kts
04-Feb-18 16:51 43.375613 -123.338400 192 10984ft 158kts
04-Feb-18 16:52 43.331637 -123.341564 192 10984ft 159kts
04-Feb-18 16:53 43.287022 -123.344767 191 10979ft 159kts
04-Feb-18 16:54 43.242962 -123.347920 192 10997ft 158kts
04-Feb-18 16:55 43.198741 -123.351093 191 10976ft 160kts
04-Feb-18 16:56 43.155335 -123.336110 158 10990ft 169kts
04-Feb-18 16:57 43.112793 -123.308369 159 10983ft 169kts
04-Feb-18 16:58 43.069990 -123.281219 160 10985ft 168kts
04-Feb-18 16:59 43.027360 -123.254362 159 10989ft 168kts
04-Feb-18 17:00 42.984615 -123.227470 159 10995ft 169kts
04-Feb-18 17:01 42.941706 -123.200525 159 10998ft 169kts
04-Feb-18 17:02 42.899067 -123.173781 159 11006ft 168kts
04-Feb-18 17:03 42.856288 -123.147015 159 11008ft 169kts
04-Feb-18 17:04 42.813637 -123.120354 159 11012ft 168kts
04-Feb-18 17:05 42.771027 -123.093785 159 11013ft 169kts
04-Feb-18 17:06 42.728228 -123.067081 159 11014ft 168kts
04-Feb-18 17:07 42.685693 -123.040617 159 11015ft 168kts
04-Feb-18 17:08 42.643297 -123.014279 159 11013ft 168kts
04-Feb-18 17:09 42.600587 -122.987793 159 11010ft 168kts
04-Feb-18 17:10 42.557950 -122.961385 159 11007ft 168kts
04-Feb-18 17:11 42.515410 -122.935048 158 11004ft 168kts
04-Feb-18 17:12 42.472429 -122.910504 175 10998ft 164kts
04-Feb-18 17:13 42.427485 -122.906780 182 11000ft 162kts
04-Feb-18 17:14 42.382137 -122.902621 181 11001ft 163kts
04-Feb-18 17:15 42.336970 -122.897968 181 10999ft 162kts
04-Feb-18 17:16 42.291851 -122.893261 181 11001ft 162kts
04-Feb-18 17:17 42.246631 -122.888541 181 11001ft 162kts
04-Feb-18 17:18 42.201557 -122.883854 181 11001ft 162kts
04-Feb-18 17:19 42.156318 -122.879162 181 11001ft 162kts
04-Feb-18 17:20 42.111185 -122.874475 181 11002ft 163kts
04-Feb-18 17:21 42.066011 -122.869782 181 11001ft 163kts
04-Feb-18 17:22 42.020714 -122.865090 181 10998ft 163kts
04-Feb-18 17:23 41.975488 -122.860412 179 10997ft 163kts
04-Feb-18 17:24 41.930242 -122.855736 179 10997ft 163kts
04-Feb-18 17:25 41.884828 -122.851064 179 10997ft 163kts
04-Feb-18 17:26 41.839555 -122.846403 179 10998ft 163kts
04-Feb-18 17:27 41.794129 -122.841725 179 10998ft 163kts
04-Feb-18 17:28 41.748813 -122.837065 179 10995ft 163kts
04-Feb-18 17:29 41.703469 -122.832409 178 10994ft 163kts
04-Feb-18 17:30 41.657978 -122.827744 178 10993ft 163kts
04-Feb-18 17:31 41.612610 -122.823099 178 10992ft 163kts
04-Feb-18 17:32 41.567261 -122.818466 178 10989ft 163kts
04-Feb-18 17:33 41.521822 -122.813817 178 10987ft 163kts
04-Feb-18 17:34 41.476508 -122.809196 178 10987ft 163kts
04-Feb-18 17:35 41.431280 -122.800139 163 10986ft 165kts
04-Feb-18 17:36 41.387662 -122.780030 163 10982ft 166kts
04-Feb-18 17:37 41.343787 -122.760899 163 10979ft 165kts
04-Feb-18 17:38 41.299794 -122.741987 163 10962ft 166kts
04-Feb-18 17:39 41.255766 -122.723075 163 10958ft 166kts
04-Feb-18 17:40 41.211967 -122.704314 163 10953ft 165kts
04-Feb-18 17:41 41.168070 -122.685556 163 10951ft 165kts
04-Feb-18 17:42 41.124404 -122.666896 163 10948ft 165kts
04-Feb-18 17:43 41.080576 -122.648212 163 10942ft 165kts
04-Feb-18 17:44 41.036836 -122.629594 162 10937ft 165kts
04-Feb-18 17:45 40.993105 -122.610991 163 10929ft 165kts
04-Feb-18 17:46 40.949003 -122.592228 163 10920ft 166kts
04-Feb-18 17:48 40.905050 -122.573604 162 10907ft 166kts
04-Feb-18 17:49 40.861074 -122.554981 162 10895ft 165kts
04-Feb-18 17:50 40.817265 -122.536454 162 10883ft 165kts
04-Feb-18 17:51 40.773539 -122.517998 162 10870ft 165kts
04-Feb-18 17:52 40.729018 -122.499223 162 10338ft 168kts
04-Feb-18 17:53 40.692482 -122.484880 162 9297ft 123kts
04-Feb-18 17:54 40.659741 -122.472426 163 8350ft 124kts
04-Feb-18 17:55 40.625765 -122.459695 162 7361ft 128kts
04-Feb-18 17:56 40.589015 -122.445614 162 6835ft 139kts
04-Feb-18 17:57 40.549036 -122.430731 163 6031ft 148kts
04-Feb-18 17:58 40.518247 -122.404438 111 4989ft 116kts
04-Feb-18 17:59 40.512130 -122.363419 92 3483ft 114kts
04-Feb-18 18:00 40.500194 -122.329146 171 1999ft 115kts
04-Feb-18 18:01 40.477628 -122.320378 105 1653ft 74kts
04-Feb-18 18:02 40.480542 -122.296338 13 1026ft 67kts
04-Feb-18 18:03 40.497241 -122.294975 1 631ft 59kts
04-Feb-18 18:04 40.508561 -122.294929 359 505ft 13kts
04-Feb-18 18:05 40.509738 -122.296020 179 505ft 20kts
04-Feb-18 18:06 40.507330 -122.299086 266 505ft 9kts
04-Feb-18 18:07 40.507241 -122.299263 113 505ft 0kts
04-Feb-18 18:08 40.507241 -122.299263 113 505ft 0kts

Navigation Log

Ident Type
Flight plan parsing failed, navigation log unavailable